Time;durP1;ratioP1;P1;durP2;ratioP2;P2;SDS_P1;SDS_P2;PMS_P1;PMS_P2;Temp;Humidity;BMP_temperature;BMP_pressure;BME280_temperature;BME280_humidity;BME280_pressure;Samples;Min_cycle;Max_cycle;Signal;HPM_P1;HPM_P2
2021/03/31 00:00:55;;;;;;;9.07;8.15;;;;;;;14.04;62.70;101823.53;4807540;28;98087;-63
2021/03/31 00:03:21;;;;;;;10.13;8.52;;;;;;;14.01;62.57;101818.63;4821978;28;128645;-63
2021/03/31 00:05:48;;;;;;;9.90;8.52;;;;;;;14.00;62.39;101820.53;4823565;28;97904;-63
2021/03/31 00:08:14;;;;;;;8.60;7.63;;;;;;;13.93;62.34;101811.78;4824360;28;98480;-60
2021/03/31 00:10:48;;;;;;;10.85;8.10;;;;;;;13.95;62.60;101806.94;4824975;28;97889;-63
2021/03/31 00:13:14;;;;;;;11.98;8.00;;;;;;;13.92;62.74;101815.56;4824449;28;99259;-63
2021/03/31 00:15:40;;;;;;;9.60;8.30;;;;;;;13.89;62.63;101807.13;4823853;28;99657;-63
2021/03/31 00:18:11;;;;;;;9.80;8.27;;;;;;;13.85;62.50;101806.81;4825436;28;102969;-60
2021/03/31 00:20:37;;;;;;;12.25;8.05;;;;;;;13.83;62.70;101806.25;4824150;28;97870;-63
2021/03/31 00:23:08;;;;;;;11.55;7.82;;;;;;;13.77;62.74;101804.59;4838274;28;98735;-63
2021/03/31 00:25:35;;;;;;;9.32;7.50;;;;;;;13.75;62.97;101809.44;4790789;28;98235;-63
2021/03/31 00:28:01;;;;;;;10.10;8.13;;;;;;;13.71;63.00;101800.19;4837871;28;98013;-63
2021/03/31 00:30:28;;;;;;;9.18;7.72;;;;;;;13.68;62.94;101798.00;4824630;28;98084;-63
2021/03/31 00:32:54;;;;;;;9.40;7.50;;;;;;;13.64;63.02;101811.25;4824247;28;115940;-63
2021/03/31 00:35:20;;;;;;;9.85;7.50;;;;;;;13.62;63.21;101797.13;4823623;28;115782;-60
2021/03/31 00:37:46;;;;;;;10.15;7.43;;;;;;;13.57;63.15;101797.06;4824053;28;98221;-60
2021/03/31 00:40:15;;;;;;;9.82;7.80;;;;;;;13.54;62.84;101791.34;4824127;28;98017;-60
2021/03/31 00:42:45;;;;;;;9.98;7.03;;;;;;;13.50;63.37;101789.13;4824158;28;111544;-60
2021/03/31 00:45:12;;;;;;;8.50;7.25;;;;;;;13.51;63.30;101789.94;4824377;28;98303;-62
2021/03/31 00:47:38;;;;;;;11.00;7.90;;;;;;;13.47;63.27;101784.22;4824168;28;97834;-63
2021/03/31 00:50:13;;;;;;;8.80;7.43;;;;;;;13.48;63.25;101787.78;4823106;28;113037;-63
2021/03/31 00:52:41;;;;;;;9.63;7.30;;;;;;;13.44;63.53;101789.31;4824572;28;99132;-63
2021/03/31 00:55:08;;;;;;;9.82;7.20;;;;;;;13.40;63.51;101778.22;4806810;28;99035;-60
2021/03/31 00:57:34;;;;;;;8.77;7.10;;;;;;;13.39;63.20;101776.56;4822804;28;112496;-63
2021/03/31 01:00:01;;;;;;;9.98;7.57;;;;;;;13.36;63.61;101785.22;4807062;28;97839;-60
2021/03/31 01:02:27;;;;;;;8.73;7.22;;;;;;;13.36;63.37;101774.38;4821862;28;98374;-60
2021/03/31 01:04:53;;;;;;;8.32;6.95;;;;;;;13.34;63.58;101768.38;4822942;28;117085;-60
2021/03/31 01:07:19;;;;;;;10.35;7.05;;;;;;;13.33;63.73;101774.06;4823858;28;109947;-63
2021/03/31 01:09:45;;;;;;;9.40;7.10;;;;;;;13.31;63.56;101765.38;4823533;28;104449;-63
2021/03/31 01:12:39;;;;;;;8.32;6.82;;;;;;;13.22;63.37;101763.06;4822114;28;99279;-60
2021/03/31 01:15:37;;;;;;;10.20;7.28;;;;;;;13.21;63.61;101766.06;4822742;28;116040;-60
2021/03/31 01:18:09;;;;;;;8.38;6.82;;;;;;;13.19;63.50;101765.47;4821807;28;98034;-60
2021/03/31 01:21:03;;;;;;;7.72;6.43;;;;;;;13.16;63.46;101760.56;4821692;28;98042;-60
2021/03/31 01:23:52;;;;;;;9.35;7.05;;;;;;;13.17;63.30;101771.16;4823090;28;98802;-60
2021/03/31 01:26:54;;;;;;;8.95;6.80;;;;;;;13.11;63.31;101761.31;4811581;28;98376;-63
2021/03/31 01:30:05;;;;;;;10.02;6.78;;;;;;;13.07;63.63;101771.03;4821232;28;97949;-63
2021/03/31 01:32:34;;;;;;;8.60;6.60;;;;;;;13.08;63.80;101766.41;4824086;28;97987;-60
2021/03/31 01:35:14;;;;;;;7.75;6.68;;;;;;;13.04;63.53;101766.09;4823688;28;98009;-60
2021/03/31 01:37:50;;;;;;;10.30;6.78;;;;;;;12.99;63.45;101764.16;4805730;28;98116;-63
2021/03/31 01:40:19;;;;;;;8.60;6.43;;;;;;;13.02;63.77;101769.06;4820602;28;98531;-63
2021/03/31 01:43:00;;;;;;;9.95;7.20;;;;;;;12.98;63.58;101765.22;4821450;28;97915;-60
2021/03/31 01:45:31;;;;;;;9.88;7.10;;;;;;;12.99;63.89;101769.56;4836796;28;97931;-60
2021/03/31 01:48:00;;;;;;;8.60;6.30;;;;;;;12.96;63.88;101767.34;4821184;28;99066;-60
2021/03/31 01:50:26;;;;;;;9.00;6.40;;;;;;;12.96;63.70;101753.81;4836841;28;98074;-60
2021/03/31 01:52:52;;;;;;;9.02;6.40;;;;;;;12.96;63.85;101753.00;4789527;28;105631;-63
2021/03/31 01:55:18;;;;;;;8.20;6.40;;;;;;;12.95;63.18;101759.50;4824296;28;98676;-63
2021/03/31 01:57:44;;;;;;;7.70;6.60;;;;;;;12.91;63.73;101756.47;4808400;28;118247;-63
2021/03/31 02:00:15;;;;;;;8.23;6.10;;;;;;;12.86;63.49;101753.72;4823619;28;98029;-63
2021/03/31 02:02:47;;;;;;;8.27;6.30;;;;;;;12.83;63.30;101751.50;4826307;28;97730;-60
2021/03/31 02:05:14;;;;;;;8.93;5.90;;;;;;;12.83;63.52;101748.00;4808759;28;98788;-63
2021/03/31 02:07:40;;;;;;;7.30;5.90;;;;;;;12.83;63.67;101750.69;4793127;28;98182;-63
2021/03/31 02:10:10;;;;;;;9.30;6.05;;;;;;;12.80;63.88;101752.00;4823191;28;99475;-60
2021/03/31 02:12:36;;;;;;;6.97;5.95;;;;;;;12.81;63.74;101758.22;4824655;28;97779;-60
2021/03/31 02:15:03;;;;;;;7.60;6.47;;;;;;;12.78;63.49;101746.03;4823488;28;107000;-63
2021/03/31 02:17:29;;;;;;;7.20;6.05;;;;;;;12.75;63.78;101741.13;4808771;28;109833;-63
2021/03/31 02:19:56;;;;;;;9.40;6.20;;;;;;;12.73;63.61;101743.25;4823518;28;113116;-62
2021/03/31 02:22:23;;;;;;;8.10;6.80;;;;;;;12.72;63.59;101745.13;4823939;28;98583;-61
2021/03/31 02:24:49;;;;;;;7.72;6.25;;;;;;;12.70;63.71;101739.19;4823769;28;110652;-61
2021/03/31 02:27:15;;;;;;;7.57;6.13;;;;;;;12.67;63.45;101746.97;4838876;28;115471;-63
2021/03/31 02:29:44;;;;;;;8.80;6.50;;;;;;;12.67;63.68;101746.97;4824834;28;109575;-60
2021/03/31 02:32:10;;;;;;;8.32;6.40;;;;;;;12.62;63.53;101746.91;4823777;28;97976;-60
2021/03/31 02:34:36;;;;;;;9.88;6.22;;;;;;;12.62;63.37;101741.50;4823514;28;120952;-60
2021/03/31 02:37:04;;;;;;;8.50;6.18;;;;;;;12.57;63.75;101744.13;4823065;28;119085;-63
2021/03/31 02:39:31;;;;;;;8.23;6.55;;;;;;;12.58;64.02;101741.19;4824149;28;115126;-62
2021/03/31 02:41:57;;;;;;;8.25;6.28;;;;;;;12.58;63.81;101752.00;4824037;28;105627;-60
2021/03/31 02:44:23;;;;;;;8.70;6.53;;;;;;;12.52;63.90;101751.09;4822947;28;128356;-60
2021/03/31 02:46:49;;;;;;;8.80;6.25;;;;;;;12.50;63.98;101745.13;4823154;28;120298;-60
2021/03/31 02:49:15;;;;;;;11.65;6.53;;;;;;;12.50;64.07;101744.31;4807555;28;120120;-60
2021/03/31 02:51:41;;;;;;;7.13;6.13;;;;;;;12.50;63.92;101747.03;4808091;28;104544;-60
2021/03/31 02:54:08;;;;;;;8.00;6.35;;;;;;;12.47;63.72;101756.44;4822061;28;128331;-61
2021/03/31 02:56:34;;;;;;;8.90;6.55;;;;;;;12.45;63.65;101746.94;4807620;28;98225;-63
2021/03/31 02:59:01;;;;;;;8.55;6.78;;;;;;;12.41;63.67;101743.09;4825447;28;97819;-60
2021/03/31 03:01:27;;;;;;;10.30;6.53;;;;;;;12.41;63.72;101752.00;4823121;28;98169;-63
2021/03/31 03:03:57;;;;;;;8.48;6.60;;;;;;;12.38;63.83;101741.72;4823177;28;99046;-61
2021/03/31 03:06:27;;;;;;;8.13;6.60;;;;;;;12.38;63.63;101738.16;4821407;28;127014;-62
2021/03/31 03:08:55;;;;;;;9.00;7.00;;;;;;;12.37;63.90;101739.25;4807356;28;109689;-60
2021/03/31 03:11:22;;;;;;;11.60;6.70;;;;;;;12.31;63.64;101740.25;4808610;28;104919;-60
2021/03/31 03:13:48;;;;;;;8.00;6.63;;;;;;;12.32;63.65;101739.19;4824954;28;98378;-60
2021/03/31 03:16:15;;;;;;;6.97;6.22;;;;;;;12.28;63.82;101742.38;4807406;28;99006;-60
2021/03/31 03:18:42;;;;;;;8.98;6.65;;;;;;;12.26;63.90;101741.81;4806886;28;98033;-60
2021/03/31 03:21:08;;;;;;;8.73;6.90;;;;;;;12.25;63.42;101736.63;4823855;28;98147;-63
2021/03/31 03:23:34;;;;;;;8.38;6.78;;;;;;;12.25;63.54;101737.44;4823560;28;98717;-60
2021/03/31 03:26:00;;;;;;;9.20;7.03;;;;;;;12.22;63.82;101737.97;4821853;28;126684;-60
2021/03/31 03:28:27;;;;;;;8.73;6.88;;;;;;;12.19;64.11;101732.25;4823281;28;98037;-60
2021/03/31 03:30:53;;;;;;;9.10;6.93;;;;;;;12.17;63.61;101735.16;4823394;28;98006;-63
2021/03/31 03:33:19;;;;;;;10.18;6.95;;;;;;;12.16;63.44;101730.84;4838065;28;128124;-60
2021/03/31 03:35:45;;;;;;;9.95;6.90;;;;;;;12.16;63.54;101735.44;4806150;28;127849;-63
2021/03/31 03:38:11;;;;;;;10.15;7.38;;;;;;;12.12;63.98;101732.41;4823081;28;97904;-62
2021/03/31 03:40:37;;;;;;;8.80;7.18;;;;;;;12.12;63.53;101735.09;4825149;28;99199;-60
2021/03/31 03:43:03;;;;;;;8.55;7.00;;;;;;;12.06;63.68;101733.38;4838275;28;99291;-62
2021/03/31 03:45:30;;;;;;;9.88;7.40;;;;;;;12.08;63.54;101725.03;4822548;28;115869;-63
2021/03/31 03:47:56;;;;;;;8.57;7.13;;;;;;;12.08;63.73;101725.84;4807921;28;104542;-60
2021/03/31 03:50:22;;;;;;;8.43;7.20;;;;;;;12.07;63.51;101729.63;4807525;28;97834;-61
2021/03/31 03:52:50;;;;;;;10.05;7.40;;;;;;;12.04;63.46;101722.81;4824494;28;117130;-63
2021/03/31 03:55:21;;;;;;;10.55;7.40;;;;;;;12.01;64.10;101727.91;4823791;28;99349;-63
2021/03/31 03:57:47;;;;;;;10.25;7.50;;;;;;;12.02;63.58;101730.38;4824732;28;102054;-60
2021/03/31 04:00:15;;;;;;;9.88;7.57;;;;;;;12.12;63.57;101727.00;4824279;28;111169;-60
2021/03/31 04:02:41;;;;;;;10.55;7.35;;;;;;;12.13;63.00;101723.22;4824713;28;98411;-62
2021/03/31 04:05:08;;;;;;;10.25;8.07;;;;;;;12.20;62.81;101725.75;4822381;28;99407;-60
2021/03/31 04:07:34;;;;;;;8.88;7.55;;;;;;;12.16;62.79;101722.72;4822904;28;98391;-61
2021/03/31 04:10:01;;;;;;;10.82;7.88;;;;;;;12.20;62.89;101714.94;4825294;28;97973;-63
2021/03/31 04:12:28;;;;;;;10.48;7.72;;;;;;;12.21;62.72;101716.56;4807203;28;98400;-60
2021/03/31 04:14:54;;;;;;;9.43;7.70;;;;;;;12.20;62.45;101720.34;4821004;28;129008;-63
2021/03/31 04:17:20;;;;;;;9.40;7.43;;;;;;;12.20;62.57;101717.66;4807397;28;97850;-60
2021/03/31 04:19:48;;;;;;;8.38;7.32;;;;;;;12.18;62.40;101722.47;4822303;28;115017;-60
2021/03/31 04:22:14;;;;;;;9.90;7.65;;;;;;;12.14;62.52;101724.03;4807272;28;97830;-60
2021/03/31 04:24:40;;;;;;;9.85;7.85;;;;;;;12.12;62.26;101718.88;4821845;28;121342;-63
2021/03/31 04:27:11;;;;;;;9.55;7.78;;;;;;;12.12;62.55;101726.19;4791427;28;98141;-60
2021/03/31 04:29:42;;;;;;;10.55;8.07;;;;;;;12.06;62.83;101719.84;4807599;28;98182;-62
2021/03/31 04:32:17;;;;;;;10.65;7.60;;;;;;;12.05;62.56;101718.22;4821974;28;110804;-63
2021/03/31 04:34:44;;;;;;;11.02;8.27;;;;;;;12.03;62.65;101714.97;4806789;28;98695;-63
2021/03/31 04:37:10;;;;;;;9.15;7.60;;;;;;;11.98;62.95;101714.88;4790955;28;127980;-63
2021/03/31 04:39:39;;;;;;;10.90;7.82;;;;;;;11.97;62.41;101718.66;4823164;28;117495;-63
2021/03/31 04:42:07;;;;;;;9.90;8.00;;;;;;;11.96;62.89;101714.31;4821613;28;122816;-63
2021/03/31 04:44:33;;;;;;;11.13;7.82;;;;;;;11.94;62.51;101711.84;4805812;29;98122;-61
2021/03/31 04:47:00;;;;;;;12.05;7.88;;;;;;;11.93;63.02;101717.50;4805404;28;118119;-60
2021/03/31 04:51:52;;;;;;;11.65;8.02;;;;;;;11.88;63.02;101709.31;4851606;28;127612;-63
2021/03/31 04:54:18;;;;;;;10.82;7.97;;;;;;;11.90;62.46;101712.59;4824011;28;99950;-63
2021/03/31 04:56:44;;;;;;;10.60;8.07;;;;;;;11.89;62.47;101714.47;4823426;28;127262;-60
2021/03/31 04:59:10;;;;;;;10.43;7.90;;;;;;;11.92;62.70;101715.88;4823614;28;97688;-63
2021/03/31 05:01:36;;;;;;;12.35;8.30;;;;;;;11.89;62.45;101706.38;4822735;28;128928;-60
2021/03/31 05:04:02;;;;;;;10.45;8.00;;;;;;;11.93;62.80;101706.69;4823689;28;97857;-60
2021/03/31 05:06:29;;;;;;;10.15;8.27;;;;;;;11.91;62.38;101709.66;4821413;28;117804;-63
2021/03/31 05:08:55;;;;;;;10.05;8.38;;;;;;;11.93;62.25;101710.22;4821671;28;118360;-60
2021/03/31 05:11:21;;;;;;;11.55;8.50;;;;;;;11.92;62.76;101710.47;4823733;28;117141;-63
2021/03/31 05:13:47;;;;;;;11.75;8.02;;;;;;;11.93;62.36;101704.81;4823330;28;98344;-60
2021/03/31 05:16:13;;;;;;;12.93;8.68;;;;;;;11.95;62.77;101705.38;4823079;28;121393;-63
2021/03/31 05:18:39;;;;;;;11.40;8.18;;;;;;;11.95;62.34;101712.69;4822798;28;98108;-60
2021/03/31 05:21:05;;;;;;;10.35;8.63;;;;;;;11.96;62.96;101717.00;4822344;28;120456;-60
2021/03/31 05:23:31;;;;;;;11.57;8.23;;;;;;;11.95;63.21;101707.28;4823103;28;98302;-60
2021/03/31 05:25:57;;;;;;;10.32;7.95;;;;;;;11.96;62.92;101709.72;4820564;28;123679;-63
2021/03/31 05:28:23;;;;;;;11.57;8.80;;;;;;;11.97;62.96;101707.84;4805653;28;104273;-60
2021/03/31 05:30:49;;;;;;;10.65;8.25;;;;;;;11.99;63.02;101700.31;4820820;28;104308;-60
2021/03/31 05:33:15;;;;;;;11.05;8.35;;;;;;;12.02;63.11;101706.03;4822969;28;98618;-63
2021/03/31 05:35:42;;;;;;;10.75;8.55;;;;;;;12.07;62.59;101701.78;4823186;28;120261;-63
2021/03/31 05:38:08;;;;;;;12.52;8.85;;;;;;;12.07;62.98;101693.69;4818417;28;114476;-60
2021/03/31 05:40:34;;;;;;;12.20;8.40;;;;;;;12.10;62.55;101696.69;4826221;28;116250;-60
2021/03/31 05:43:00;;;;;;;12.85;9.40;;;;;;;12.15;63.03;101685.16;4832309;28;118408;-60
2021/03/31 05:45:28;;;;;;;11.05;8.73;;;;;;;12.19;62.69;101689.00;4838400;28;98099;-62
2021/03/31 05:47:54;;;;;;;11.32;8.63;;;;;;;12.24;62.58;101686.34;4833283;28;98011;-61
2021/03/31 05:50:20;;;;;;;12.77;8.90;;;;;;;12.28;62.33;101680.19;4831467;28;98519;-60
2021/03/31 05:52:46;;;;;;;12.65;9.25;;;;;;;12.33;62.57;101675.91;4832270;28;126884;-63
2021/03/31 05:55:14;;;;;;;12.95;8.75;;;;;;;12.39;62.57;101678.44;4840637;28;98015;-63
2021/03/31 05:57:41;;;;;;;14.32;9.60;;;;;;;12.50;62.58;101685.63;4837211;28;98252;-60
2021/03/31 06:00:13;;;;;;;13.73;9.73;;;;;;;12.58;62.43;101676.28;4838092;28;112282;-62
2021/03/31 06:02:43;;;;;;;12.82;9.10;;;;;;;12.72;62.12;101682.09;4831420;28;99276;-61
2021/03/31 06:05:11;;;;;;;12.65;9.55;;;;;;;12.84;62.04;101681.97;4826835;28;97799;-62
2021/03/31 06:07:43;;;;;;;13.40;9.80;;;;;;;12.93;61.57;101675.88;4827648;28;100918;-60
2021/03/31 06:10:14;;;;;;;12.95;9.50;;;;;;;13.10;61.47;101680.38;4835033;28;99216;-60
2021/03/31 06:12:46;;;;;;;12.32;9.68;;;;;;;13.20;61.34;101677.75;4834968;28;98812;-60
2021/03/31 06:15:29;;;;;;;12.63;9.10;;;;;;;13.30;61.34;101672.47;4838594;28;98171;-63
2021/03/31 06:18:00;;;;;;;13.43;9.77;;;;;;;13.43;61.05;101676.66;4835183;28;98112;-60
2021/03/31 06:20:45;;;;;;;13.82;9.70;;;;;;;13.64;60.53;101672.25;4832995;28;98964;-61
2021/03/31 06:26:31;;;;;;;13.20;9.50;;;;;;;13.90;60.40;101670.53;4832561;28;97984;-61
2021/03/31 06:29:10;;;;;;;13.45;9.98;;;;;;;13.93;60.56;101670.84;4824247;28;98748;-63
2021/03/31 06:31:41;;;;;;;12.07;9.40;;;;;;;14.02;60.65;101668.44;4829837;28;98546;-60
2021/03/31 06:34:13;;;;;;;11.95;9.50;;;;;;;14.10;60.51;101669.84;4828213;28;98289;-60
2021/03/31 06:36:44;;;;;;;11.83;9.30;;;;;;;14.21;60.07;101671.56;4832652;28;98176;-60
2021/03/31 06:39:34;;;;;;;11.63;9.35;;;;;;;14.30;59.68;101667.25;4829808;28;97839;-63
2021/03/31 06:42:12;;;;;;;11.25;9.55;;;;;;;14.38;60.01;101658.63;4839582;28;99217;-63
2021/03/31 06:47:31;;;;;;;11.55;9.48;;;;;;;14.51;60.06;101659.25;4834280;28;98065;-63
2021/03/31 06:49:59;;;;;;;12.20;9.30;;;;;;;14.54;59.61;101658.72;4841032;28;98140;-61
2021/03/31 06:52:25;;;;;;;11.52;9.60;;;;;;;14.63;59.84;101654.44;4838659;28;99212;-63
2021/03/31 06:55:01;;;;;;;12.73;10.05;;;;;;;14.72;59.39;101652.81;4839879;28;113967;-61
2021/03/31 06:57:34;;;;;;;12.73;8.88;;;;;;;14.78;59.43;101649.06;4836822;28;97875;-63
2021/03/31 07:00:13;;;;;;;12.35;9.43;;;;;;;14.89;58.66;101652.59;4839887;28;98705;-60
2021/03/31 07:02:42;;;;;;;12.43;9.57;;;;;;;15.03;58.76;101645.56;4826976;28;98908;-64
2021/03/31 07:05:09;;;;;;;12.23;9.73;;;;;;;15.06;58.49;101639.63;4830847;28;98470;-61
2021/03/31 07:07:43;;;;;;;10.98;9.13;;;;;;;15.18;58.68;101633.94;4835136;28;98236;-61
2021/03/31 07:10:16;;;;;;;11.35;9.20;;;;;;;15.26;58.10;101635.31;4850205;28;98050;-60
2021/03/31 07:12:52;;;;;;;10.48;9.35;;;;;;;15.33;58.95;101627.72;4834996;28;98645;-63
2021/03/31 07:15:21;;;;;;;11.20;9.98;;;;;;;15.40;58.10;101626.31;4840406;28;99461;-61
2021/03/31 07:17:58;;;;;;;10.35;9.10;;;;;;;15.52;57.29;101626.03;4840184;28;97758;-64
2021/03/31 07:20:27;;;;;;;12.65;9.27;;;;;;;15.65;56.71;101625.53;4840903;28;97797;-61
2021/03/31 07:22:54;;;;;;;11.80;9.50;;;;;;;15.81;56.00;101625.53;4835362;28;98245;-63
2021/03/31 07:25:22;;;;;;;10.80;8.80;;;;;;;15.92;56.11;101619.81;4840656;28;98129;-61
2021/03/31 07:27:49;;;;;;;10.18;8.63;;;;;;;16.09;55.81;101626.81;4833525;28;98620;-63
2021/03/31 07:30:22;;;;;;;11.10;8.73;;;;;;;16.16;56.58;101624.63;4838516;28;98244;-63
2021/03/31 07:33:17;;;;;;;10.07;8.70;;;;;;;16.38;55.38;101616.91;4841584;28;99108;-61
2021/03/31 07:35:43;;;;;;;9.15;7.43;;;;;;;16.63;56.40;101626.09;4847163;28;98772;-63
2021/03/31 07:38:13;;;;;;;9.43;7.20;;;;;;;16.85;57.20;101614.81;4854094;28;98169;-63
2021/03/31 07:40:40;;;;;;;8.00;6.80;;;;;;;17.12;59.97;101619.81;4864403;28;98065;-63
2021/03/31 07:43:14;;;;;;;8.70;7.07;;;;;;;17.45;60.23;101623.66;4857061;28;97971;-64
2021/03/31 07:45:45;;;;;;;9.73;6.95;;;;;;;17.74;59.80;101612.75;4821940;28;98781;-64
2021/03/31 07:48:12;;;;;;;9.00;6.47;;;;;;;18.10;59.14;101615.13;4836027;28;98471;-61
2021/03/31 07:50:38;;;;;;;7.55;6.18;;;;;;;18.43;58.15;101610.66;4834196;28;97855;-61
2021/03/31 07:53:06;;;;;;;6.78;5.88;;;;;;;18.75;57.06;101606.44;4830010;28;126220;-63
2021/03/31 07:55:45;;;;;;;7.30;6.10;;;;;;;19.26;57.02;101611.94;4839926;28;98484;-61
2021/03/31 07:58:16;;;;;;;6.60;5.90;;;;;;;19.78;55.17;101603.69;4836870;28;97959;-61
2021/03/31 08:00:46;;;;;;;6.50;5.40;;;;;;;20.39;54.47;101599.72;4831870;28;98601;-64
2021/03/31 08:03:14;;;;;;;6.95;5.78;;;;;;;20.96;52.60;101610.28;4828715;28;98967;-64
2021/03/31 08:06:14;;;;;;;7.15;5.70;;;;;;;21.87;51.99;101609.13;4835647;28;116729;-61
2021/03/31 08:08:49;;;;;;;6.03;5.43;;;;;;;22.36;51.37;101605.28;4839513;28;98049;-64
2021/03/31 08:11:56;;;;;;;6.10;5.20;;;;;;;23.44;49.79;101611.78;4840838;28;97947;-61
2021/03/31 08:14:31;;;;;;;5.75;5.25;;;;;;;23.64;49.11;101607.50;4816893;28;98642;-61
2021/03/31 08:16:59;;;;;;;6.85;5.05;;;;;;;23.99;48.84;101604.66;4817663;28;98386;-65
2021/03/31 08:19:33;;;;;;;5.55;4.90;;;;;;;24.51;48.18;101609.09;4816272;28;116843;-65
2021/03/31 08:22:21;;;;;;;6.00;4.70;;;;;;;24.98;48.22;101612.47;4839782;28;98236;-61
2021/03/31 08:24:49;;;;;;;4.50;4.10;;;;;;;25.51;47.61;101610.88;4831783;28;98634;-61
2021/03/31 08:27:15;;;;;;;5.30;3.88;;;;;;;26.06;47.05;101611.53;4829874;28;98407;-61
2021/03/31 08:29:44;;;;;;;5.43;3.45;;;;;;;26.63;45.99;101611.38;4828612;28;103029;-62
2021/03/31 08:32:11;;;;;;;3.90;3.50;;;;;;;27.17;46.17;101615.72;4834963;28;98031;-61
2021/03/31 08:34:38;;;;;;;4.43;3.10;;;;;;;27.76;44.52;101608.59;4839448;28;98429;-62
2021/03/31 08:37:17;;;;;;;4.22;3.00;;;;;;;28.27;44.83;101597.56;4835370;28;128507;-65
2021/03/31 08:39:43;;;;;;;3.08;2.78;;;;;;;28.91;43.87;101600.94;4837864;28;98380;-65
2021/03/31 08:42:09;;;;;;;3.33;2.63;;;;;;;29.53;42.36;101594.22;4836131;28;117095;-66
2021/03/31 08:44:40;;;;;;;3.25;2.50;;;;;;;30.16;40.24;101589.34;4833631;28;121099;-62
2021/03/31 08:47:26;;;;;;;4.05;2.88;;;;;;;31.03;39.13;101588.13;4838836;28;98350;-65
2021/03/31 08:50:03;;;;;;;2.70;2.42;;;;;;;31.69;37.96;101593.19;4839439;28;97899;-62
2021/03/31 08:52:37;;;;;;;3.40;2.08;;;;;;;32.22;37.04;101587.19;4835648;28;99178;-66
2021/03/31 08:55:10;;;;;;;3.50;2.20;;;;;;;32.83;36.33;101584.75;4834526;28;98542;-62
2021/03/31 08:57:36;;;;;;;2.25;2.03;;;;;;;33.37;34.91;101578.13;4834734;28;99541;-66
2021/03/31 09:00:07;;;;;;;2.30;2.10;;;;;;;33.92;34.16;101577.75;4836388;28;98029;-66
2021/03/31 09:02:36;;;;;;;2.60;2.00;;;;;;;34.44;33.34;101578.03;4838712;28;97849;-66
2021/03/31 09:05:04;;;;;;;2.78;2.00;;;;;;;34.86;33.69;101581.06;4831794;28;98972;-66
2021/03/31 09:07:30;;;;;;;2.55;1.83;;;;;;;35.32;32.29;101575.22;4831396;28;98592;-62
2021/03/31 09:09:56;;;;;;;2.63;1.75;;;;;;;35.67;31.90;101566.97;4838697;28;99073;-66
2021/03/31 09:12:25;;;;;;;2.22;1.70;;;;;;;36.06;31.56;101563.81;4838510;28;98161;-63
2021/03/31 09:14:56;;;;;;;3.35;1.85;;;;;;;36.47;30.92;101563.78;4839441;28;99014;-63
2021/03/31 09:17:23;;;;;;;;;;;;;;;37.16;30.02;101549.59;4837312;28;99394;-63
2021/03/31 09:19:54;;;;;;;2.53;1.60;;;;;;;37.06;30.24;101545.72;4834197;28;98635;-66
2021/03/31 09:22:23;;;;;;;3.35;1.60;;;;;;;37.34;29.97;101548.09;4817749;28;101247;-63
2021/03/31 09:24:54;;;;;;;2.80;1.60;;;;;;;37.61;29.71;101540.81;4811097;28;100894;-67
2021/03/31 09:27:41;;;;;;;3.70;1.40;;;;;;;37.91;29.54;101537.88;4834348;28;97856;-61
2021/03/31 09:30:14;;;;;;;1.88;1.30;;;;;;;38.39;28.81;101528.09;4839485;28;98000;-61
2021/03/31 09:35:17;;;;;;;1.83;1.30;;;;;;;39.37;27.38;101513.41;4799046;28;98010;-64
2021/03/31 09:37:46;;;;;;;2.42;1.25;;;;;;;39.82;26.44;101510.63;4832655;28;99322;-61
2021/03/31 09:40:26;;;;;;;3.53;2.28;;;;;;;40.57;25.92;101510.50;4833108;28;98029;-62
2021/03/31 09:42:57;;;;;;;3.30;3.00;;;;;;;41.25;24.72;101511.16;4839683;28;97924;-64
2021/03/31 09:45:28;;;;;;;3.20;2.92;;;;;;;41.67;24.52;101511.72;4838957;28;99800;-62
2021/03/31 09:47:56;;;;;;;3.88;3.00;;;;;;;42.12;23.99;101490.69;4834332;28;98511;-62
2021/03/31 09:50:27;;;;;;;3.83;2.60;;;;;;;42.50;23.86;101496.13;4836503;28;97989;-62
2021/03/31 09:52:58;;;;;;;3.55;2.70;;;;;;;42.99;22.61;101494.56;4831931;28;98248;-65
2021/03/31 09:55:24;;;;;;;4.38;2.42;;;;;;;43.53;21.94;101491.06;4836592;28;99232;-66
2021/03/31 09:57:51;;;;;;;3.53;2.38;;;;;;;43.91;22.01;101492.66;4829153;28;99118;-65
2021/03/31 10:00:18;;;;;;;3.30;2.13;;;;;;;44.16;21.77;101485.78;4834248;28;97890;-65
2021/03/31 10:02:45;;;;;;;4.20;2.00;;;;;;;44.39;21.35;101484.34;4830912;28;98390;-62
2021/03/31 10:05:17;;;;;;;2.70;2.00;;;;;;;44.49;21.06;101466.00;4836733;28;98661;-62
2021/03/31 10:08:05;;;;;;;2.58;1.75;;;;;;;44.78;20.85;101470.28;4839008;28;98406;-65
2021/03/31 10:10:48;;;;;;;2.38;1.70;;;;;;;45.33;20.54;101469.94;4839173;28;98433;-62
2021/03/31 10:13:16;;;;;;;1.90;1.50;;;;;;;45.12;20.58;101462.50;4838397;28;97956;-62
2021/03/31 10:15:44;;;;;;;2.05;1.23;;;;;;;45.42;20.31;101455.63;4837417;28;98187;-62
2021/03/31 10:18:11;;;;;;;1.80;1.30;;;;;;;45.83;19.78;101449.44;4841775;28;98661;-65
2021/03/31 10:20:44;;;;;;;2.88;1.55;;;;;;;46.21;19.76;101434.31;4837454;28;97919;-62
2021/03/31 10:23:27;;;;;;;1.48;1.13;;;;;;;46.97;18.50;101428.72;4849456;28;97930;-65
2021/03/31 10:26:11;;;;;;;2.13;1.25;;;;;;;47.05;18.50;101424.13;4849952;28;98126;-62
2021/03/31 10:28:40;;;;;;;1.73;1.10;;;;;;;47.46;18.31;101415.53;4824659;28;98713;-65
2021/03/31 10:31:25;;;;;;;2.50;1.03;;;;;;;48.09;17.58;101411.97;4824183;28;97917;-62
2021/03/31 10:33:52;;;;;;;1.80;0.90;;;;;;;47.85;17.97;101403.72;4843749;28;97924;-65
2021/03/31 10:50:16;;;;;;;1.95;0.90;;;;;;;48.12;17.91;101385.25;4837690;28;98727;-66
2021/03/31 10:52:47;;;;;;;1.30;0.77;;;;;;;47.85;17.71;101369.44;4831798;28;98542;-62
2021/03/31 10:55:13;;;;;;;1.92;0.90;;;;;;;47.69;18.39;101376.59;4834823;28;97857;-66
2021/03/31 10:57:39;;;;;;;2.63;0.88;;;;;;;47.15;19.07;101367.72;4840267;28;127970;-62
2021/03/31 11:00:06;;;;;;;1.65;0.82;;;;;;;46.87;19.02;101370.22;4839607;28;128006;-62
2021/03/31 11:02:32;;;;;;;1.75;0.90;;;;;;;46.51;19.59;101367.41;4840805;28;98406;-66
2021/03/31 11:04:58;;;;;;;2.03;1.00;;;;;;;46.16;20.18;101361.72;4834210;28;117903;-62
2021/03/31 11:07:24;;;;;;;1.90;1.10;;;;;;;46.09;20.08;101350.72;4840080;28;127952;-62
2021/03/31 11:09:50;;;;;;;1.92;0.80;;;;;;;45.89;20.47;101345.78;4840628;28;116644;-62
2021/03/31 11:12:16;;;;;;;1.42;0.80;;;;;;;46.00;20.21;101356.56;4841121;28;98433;-62
2021/03/31 11:14:43;;;;;;;2.58;0.75;;;;;;;46.34;19.86;101342.81;4838467;28;103647;-65
2021/03/31 11:20:12;;;;;;;1.48;0.85;;;;;;;47.03;18.88;101346.84;4818931;28;98657;-65
2021/03/31 11:25:43;;;;;;;2.35;0.70;;;;;;;46.98;19.45;101339.03;4839686;28;98238;-66
2021/03/31 11:28:09;;;;;;;2.08;0.65;;;;;;;46.53;19.67;101329.09;4840190;28;98249;-66
2021/03/31 11:30:36;;;;;;;2.05;0.82;;;;;;;46.20;19.73;101333.84;4838339;28;128021;-65
2021/03/31 11:33:02;;;;;;;1.55;0.80;;;;;;;45.89;20.54;101322.22;4837709;28;106829;-65
2021/03/31 11:35:28;;;;;;;1.65;0.70;;;;;;;45.75;20.40;101318.13;4840097;28;99257;-62
2021/03/31 11:37:54;;;;;;;2.17;0.70;;;;;;;45.52;20.94;101312.06;4841138;28;99033;-62
2021/03/31 11:40:20;;;;;;;1.70;0.70;;;;;;;45.35;21.04;101313.00;4837781;28;118952;-62
2021/03/31 11:42:47;;;;;;;1.65;0.70;;;;;;;45.18;21.33;101299.25;4840345;28;97978;-66
2021/03/31 11:45:14;;;;;;;3.80;2.72;;;;;;;41.47;14.63;101285.81;4840830;28;98057;-62
2021/03/31 11:47:40;;;;;;;4.90;3.65;;;;;;;39.34;12.90;101285.97;4838683;28;128159;-62
2021/03/31 11:50:07;;;;;;;4.65;3.17;;;;;;;38.72;12.69;101284.00;4839391;28;127910;-62
2021/03/31 11:52:33;;;;;;;3.05;2.72;;;;;;;38.18;12.83;101284.53;4840009;28;98266;-65
2021/03/31 11:54:59;;;;;;;4.28;2.65;;;;;;;37.54;13.68;101278.31;4837558;28;108661;-61
2021/03/31 11:57:25;;;;;;;4.10;3.30;;;;;;;37.10;13.58;101279.59;4832225;28;127841;-61
2021/03/31 11:59:51;;;;;;;5.07;2.72;;;;;;;37.08;14.07;101276.44;4837339;28;127728;-61
2021/03/31 12:02:17;;;;;;;5.65;2.60;;;;;;;36.59;13.37;101273.31;4840001;28;118216;-65